首页
METAR-TAF:

METAR-TAF

机场 :

卡薩內, 博兹瓦纳

纬度: 17-49S, 经度: 025-09E, 海拔: 968米

当前天气观测

该预报发布于1小时和14分钟前的14:00 UTC
风速8节,风向西转西北,在西北转西北之间变化
温度 26°C
湿度 32%
气压 1018 hPa
能见度10公里或以上
1500米以下无云,无积雨云

METAR: FBKE 251400Z 30008KT 270V340 CAVOK 26/08 Q1018

时间: 17:14 (15:14 UTC)

预报

该预报发布于3小时和14分钟前的12:00 UTC
预报有效从25日的 15点(UTC)到 25日的 24点(UTC)
风速4节,风向西
能见度10公里或以上
1500米以下无云,无积雨云

TAF: FBKE 251200Z 2515/2524 28004KT CAVOK

超过4000个机场的气象观测和天气预报(METAR&TAF报告)。

可查询的气象台以黄色和红色小点在地图上表示。

将鼠标移到小点上方,可查看气象台名称。

然后点击查看天气观测和预报。

如需切换地图:点击带黑十字的绿色按钮放大地图;点击带横线的绿色按钮缩小地图;或者点击绿色箭头查看邻近地区的地图。


METAR-TAF: